Revelo, KY (42638)

5:08 AM EST on February 10, 2016 (GMT -0500)
Station Camp | | Change Station
CLOSE
Current Station
Personal Weather Station
Location: Oneida, TN
Elevation: 1417 ft
Nearby Weather Stations
Active Advisory: Winter Weather Advisory

Elev 1417 ft 36.52 °N, 84.61 °W | Updated 3 minutes ago

Overcast
Overcast
17.2 °F
Feels Like 17 °F
N
2.0
Wind Variable Wind from West
Gusts 8.0 mph

Today
High -- | Low -- °F
--% Chance of Precip.
Yesterday
High -- | Low -- °F
Precip. -- in
Pressure 30.03 in
Visibility 10.0 miles
Clouds Scattered Clouds 1800 ft
Scattered Clouds 3800 ft
Overcast 4400 ft
Windchill 17 °F
Dew Point 11 °F
Humidity 78%
Rainfall 0.00 in
Snow Depth Not available.
7:31 AM 6:12 PM
Waxing Crescent, 4% visible
METAR KSME 100955Z AUTO 27006KT 10SM SCT018 SCT038 OVC044 M08/M11 A3003 RMK AO2
Pressure 30.03 in
Visibility 10.0 miles
Clouds Scattered Clouds 1800 ft
Scattered Clouds 3800 ft
Overcast 4400 ft
Windchill 17 °F
Dew Point 11 °F
Humidity 78%
Rainfall 0.00 in
Snow Depth Not available.
7:31 AM 6:12 PM
Waxing Crescent, 4% visible
METAR KSME 100955Z AUTO 27006KT 10SM SCT018 SCT038 OVC044 M08/M11 A3003 RMK AO2

10-Day Weather Forecast

Almanac

Astronomy

Feb. 10, 2016 Rise Set
Actual Time
Civil Twilight
Nautical Twilight
Astronomical Twilight
Moon
Length of Visible Light
Length of Day
Tomorrow will be .
, % of the Moon is Illuminated

Today's Extremes

State Highs State Lows

Community

WunderPhotos

Upload Photos

1,891,828 photos uploaded!

WunderBlog® & News

Nearby

Air Quality

  Air Quality AQ Index Pollutant
Not available.

Snow Depth

Station Depth Elevation

Earthquake Activity

City Distance Mag. Time & Date
Minimum magnitude displayed is 2.5.

Coastal Water Temperatures

Place Temperature

Stations

Nearby Weather Stations

Station Location Temp. Windchill Dew Point Humidity Wind Precip. Elev Updated Type
                   

Watches & Warnings

Winter Weather Advisory
Issued: 9:39 PM EST Feb. 9, 2016 – National Weather Service

... Winter Weather Advisory remains in effect until 10 am EST
Wednesday...

* periods of snow showers will continue through Wednesday
morning... before gradually diminishing.

* Light snow will accumulate through the morning commute with up
to 1 inch of accumulation from tonight into Wednesday morning.

* Roads and walkways will become slippery... snow covered and or
icy... especially those which are untreated as temperatures fall
into the teens. Localized heavy snow showers may also bring
greatly reduced visibility at times.

Precautionary/preparedness actions...

A Winter Weather Advisory for snow means that periods of snow
will cause primarily travel difficulties. Be prepared for snow
covered roads and limited visibilities... and use caution while
driving.